;
Station Historical Data
 
Daily Summary for October 20, 2018 Units:  English    Metric   Both
Next Day »
Daily Weekly Monthly Yearly Custom
  Current: High: Low: Average:
Temperature: 38.7 °F 52.7 °F 38.7 °F 44.8 °F
Dew Point: 36.5 °F 48.4 °F 36.5 °F 42.3 °F
Humidity: 92% 93% 83% 91%
Wind Speed: 0mph 5.8mph 0mph 0.5mph
Wind Gust: 0mph 1.8mph - -
WindCalm - - South
Pressure: 30.06 in 30.25 in 30.06 in -
Precipitation: 0 in      
Historical Graphs
 
 
Tabular Data for October 20, 2018
Time Temperature Dew Point Pressure Wind Wind Speed Wind Gust Humidity Rainfall Rate (Hourly)
00:04 40.8 °F 38.7 °F 30.25 in Calm     92% 0 in
00:09 40.8 °F 38.7 °F 30.25 in Calm     92% 0 in
00:14 40.6 °F 38.5 °F 30.25 in Calm     92% 0 in
00:19 40.5 °F 38.3 °F 30.25 in Calm     92% 0 in
00:24 40.5 °F 38.3 °F 30.25 in Calm     92% 0 in
00:29 40.3 °F 38.1 °F 30.25 in Calm     92% 0 in
00:34 40.3 °F 38.1 °F 30.25 in Calm     92% 0 in
00:39 40.1 °F 38 °F 30.25 in Calm     92% 0 in
00:44 39.9 °F 37.8 °F 30.25 in Calm     92% 0 in
00:49 39.9 °F 37.8 °F 30.25 in Calm     92% 0 in
00:54 39.9 °F 37.8 °F 30.25 in Calm     92% 0 in
00:59 39.7 °F 37.6 °F 30.25 in Calm     92% 0 in
01:04 39.7 °F 37.6 °F 30.25 in Calm     92% 0 in
01:09 39.6 °F 37.4 °F 30.25 in Calm     92% 0 in
01:14 39.6 °F 37.4 °F 30.25 in Calm     92% 0 in
01:19 39.6 °F 37.4 °F 30.25 in Calm     92% 0 in
01:24 39.4 °F 37.2 °F 30.25 in Calm     92% 0 in
01:29 39.2 °F 37.1 °F 30.25 in Calm     92% 0 in
01:34 39.2 °F 37.3 °F 30.25 in Calm     93% 0 in
01:39 39.2 °F 37.3 °F 30.25 in Calm     93% 0 in
01:44 39.4 °F 37.5 °F 30.25 in Calm     93% 0 in
01:49 39.4 °F 37.5 °F 30.25 in Calm     93% 0 in
01:54 39.6 °F 37.7 °F 30.25 in Calm     93% 0 in
01:59 39.7 °F 37.9 °F 30.25 in Calm     93% 0 in
02:04 39.9 °F 38.1 °F 30.25 in Calm     93% 0 in
02:09 40.3 °F 38.4 °F 30.25 in Calm     93% 0 in
02:14 40.5 °F 38.6 °F 30.25 in Calm     93% 0 in
02:19 40.6 °F 38.8 °F 30.25 in Calm     93% 0 in
02:24 40.6 °F 38.8 °F 30.25 in Calm     93% 0 in
02:29 40.8 °F 39 °F 30.25 in Calm     93% 0 in
02:34 40.8 °F 39 °F 30.25 in Calm     93% 0 in
02:39 41.2 °F 39.3 °F 30.25 in Calm     93% 0 in
02:44 41.2 °F 39.3 °F 30.25 in Calm     93% 0 in
02:49 41.4 °F 39.5 °F 30.25 in Calm     93% 0 in
02:54 41.5 °F 39.7 °F 30.25 in Calm     93% 0 in
02:59 41.7 °F 39.8 °F 30.25 in Calm     93% 0 in
03:04 41.9 °F 40 °F 30.25 in Calm     93% 0 in
03:09 42.1 °F 40.2 °F 30.25 in Calm     93% 0 in
03:14 42.3 °F 40.4 °F 30.25 in Calm     93% 0 in
03:19 42.3 °F 40.4 °F 30.25 in Calm     93% 0 in
03:24 42.4 °F 40.6 °F 30.25 in Calm     93% 0 in
03:29 42.6 °F 40.7 °F 30.25 in Calm     93% 0 in
03:34 43 °F 41.1 °F 30.25 in Calm     93% 0 in
03:39 43.2 °F 41.3 °F 30.25 in Calm     93% 0 in
03:44 43.3 °F 41.5 °F 30.25 in Calm     93% 0 in
03:49 43.5 °F 41.6 °F 30.25 in Calm     93% 0 in
03:54 43.7 °F 41.8 °F 30.25 in NNW 2.3 mph   93% 0 in
03:59 43.9 °F 42 °F 30.25 in Calm     93% 0 in
04:04 44.1 °F 42.2 °F 30.25 in Calm     93% 0 in
04:09 44.1 °F 42.2 °F 30.25 in North 1.2 mph   93% 0 in
04:14 44.2 °F 42.3 °F 30.25 in Calm     93% 0 in
04:19 44.4 °F 42.5 °F 30.25 in Calm     93% 0 in
04:24 44.4 °F 42.5 °F 30.25 in Calm     93% 0 in
04:29 44.4 °F 42.5 °F 30.25 in Calm     93% 0 in
04:34 44.4 °F 42.5 °F 30.25 in Calm     93% 0 in
04:39 44.4 °F 42.5 °F 30.25 in Calm     93% 0 in
04:44 44.4 °F 42.5 °F 30.25 in Calm     93% 0 in
04:49 44.4 °F 42.5 °F 30.25 in Calm     93% 0 in
04:54 44.2 °F 42.3 °F 30.25 in Calm     93% 0 in
04:59 44.2 °F 42.3 °F 30.25 in Calm     93% 0 in
05:04 44.1 °F 42.2 °F 30.25 in Calm     93% 0 in
05:09 44.1 °F 42.2 °F 30.25 in Calm     93% 0 in
05:14 43.9 °F 42 °F 30.25 in Calm     93% 0 in
05:19 43.9 °F 42 °F 30.25 in Calm     93% 0 in
05:24 43.9 °F 42 °F 30.25 in Calm     93% 0 in
05:29 43.9 °F 42 °F 30.25 in Calm     93% 0 in
05:34 43.9 °F 42 °F 30.25 in Calm     93% 0 in
05:39 43.9 °F 42 °F 30.25 in Calm     93% 0 in
05:44 43.9 °F 42 °F 30.25 in Calm     93% 0 in
05:49 43.9 °F 42 °F 30.25 in Calm     93% 0 in
05:54 43.9 °F 42 °F 30.25 in Calm     93% 0 in
05:59 43.7 °F 41.8 °F 30.25 in Calm     93% 0 in
06:04 43.5 °F 41.6 °F 30.25 in Calm     93% 0 in
06:09 43.5 °F 41.6 °F 30.25 in Calm     93% 0 in
06:14 43.3 °F 41.5 °F 30.25 in Calm     93% 0 in
06:19 43.2 °F 41.3 °F 30.25 in Calm     93% 0 in
06:24 43 °F 41.1 °F 30.25 in Calm     93% 0 in
06:29 42.6 °F 40.7 °F 30.25 in Calm     93% 0 in
06:34 42.6 °F 40.7 °F 30.25 in Calm     93% 0 in
06:39 42.6 °F 40.7 °F 30.25 in Calm     93% 0 in
06:44 42.4 °F 40.6 °F 30.25 in Calm     93% 0 in
06:49 42.4 °F 40.6 °F 30.25 in Calm     93% 0 in
06:54 42.3 °F 40.4 °F 30.25 in Calm     93% 0 in
06:59 42.3 °F 40.4 °F 30.25 in Calm     93% 0 in
07:04 42.1 °F 40.2 °F 30.24 in Calm     93% 0 in
07:09 42.1 °F 40.2 °F 30.24 in Calm     93% 0 in
07:14 41.7 °F 39.8 °F 30.24 in Calm     93% 0 in
07:19 41.7 °F 39.8 °F 30.24 in Calm     93% 0 in
07:24 41.4 °F 39.5 °F 30.24 in Calm     93% 0 in
07:29 41.2 °F 39.3 °F 30.24 in Calm     93% 0 in
07:34 41 °F 39.1 °F 30.24 in Calm     93% 0 in
07:39 40.8 °F 39 °F 30.24 in Calm     93% 0 in
07:44 40.6 °F 38.8 °F 30.24 in Calm     93% 0 in
07:49 40.5 °F 38.6 °F 30.24 in Calm     93% 0 in
07:54 40.3 °F 38.4 °F 30.24 in Calm     93% 0 in
07:59 40.1 °F 38.2 °F 30.24 in Calm     93% 0 in
08:04 39.9 °F 38.1 °F 30.24 in Calm     93% 0 in
08:09 39.9 °F 38.1 °F 30.24 in Calm     93% 0 in
08:14 39.9 °F 38.1 °F 30.24 in Calm     93% 0 in
08:19 39.9 °F 38.1 °F 30.24 in Calm     93% 0 in
08:24 39.9 °F 38.1 °F 30.24 in Calm     93% 0 in
08:29 39.9 °F 38.1 °F 30.24 in Calm     93% 0 in
08:34 39.9 °F 38.1 °F 30.24 in Calm     93% 0 in
08:39 40.1 °F 38.2 °F 30.24 in Calm     93% 0 in
08:44 40.3 °F 38.4 °F 30.24 in Calm     93% 0 in
08:49 40.5 °F 38.6 °F 30.23 in Calm     93% 0 in
08:54 40.6 °F 38.8 °F 30.23 in Calm     93% 0 in
08:59 40.8 °F 39 °F 30.23 in Calm     93% 0 in
09:04 41.4 °F 39.5 °F 30.23 in Calm     93% 0 in
09:09 41.9 °F 40 °F 30.23 in Calm     93% 0 in
09:14 42.4 °F 40.6 °F 30.23 in Calm     93% 0 in
09:19 43.2 °F 41.3 °F 30.22 in Calm     93% 0 in
09:24 43.7 °F 41.8 °F 30.22 in Calm     93% 0 in
09:29 44.2 °F 42.3 °F 30.22 in Calm     93% 0 in
09:34 44.6 °F 42.7 °F 30.22 in Calm     93% 0 in
09:39 45 °F 43.1 °F 30.22 in Calm     93% 0 in
09:44 45.1 °F 43.2 °F 30.22 in Calm     93% 0 in
09:49 45.5 °F 43.6 °F 30.22 in Calm     93% 0 in
09:54 45.9 °F 44 °F 30.22 in Calm     93% 0 in
09:59 46.2 °F 44.3 °F 30.22 in Calm     93% 0 in
10:04 46.8 °F 44.8 °F 30.22 in Calm     93% 0 in
10:09 46.8 °F 44.8 °F 30.22 in Calm     93% 0 in
10:14 46.8 °F 44.8 °F 30.22 in Calm     93% 0 in
10:19 46.8 °F 44.8 °F 30.22 in Calm     93% 0 in
10:24 46.6 °F 44.7 °F 30.22 in Calm     93% 0 in
10:29 46.2 °F 44.3 °F 30.22 in Calm     93% 0 in
10:34 45.9 °F 44 °F 30.22 in Calm     93% 0 in
10:39 45.5 °F 43.6 °F 30.22 in Calm     93% 0 in
10:44 45.3 °F 43.4 °F 30.22 in NNE 3.5 mph   93% 0 in
10:49 45.5 °F 43.6 °F 30.22 in NNW 3.5 mph   93% 0 in
10:54 45.5 °F 43.6 °F 30.22 in NW 2 mph   93% 0 in
10:59 45.5 °F 43.6 °F 30.22 in North 3.1 mph   93% 0 in
11:04 45.3 °F 43.4 °F 30.22 in Calm     93% 0 in
11:09 45.7 °F 43.8 °F 30.22 in Calm     93% 0 in
11:14 45.9 °F 44 °F 30.22 in North 1.4 mph   93% 0 in
11:19 46 °F 44.1 °F 30.21 in Calm     93% 0 in
11:24 46.4 °F 44.5 °F 30.21 in Calm     93% 0 in
11:29 46.8 °F 44.8 °F 30.21 in Calm     93% 0 in
11:34 46.8 °F 44.8 °F 30.21 in Calm     93% 0 in
11:39 46.9 °F 45 °F 30.21 in North 2.3 mph   93% 0 in
11:44 46.9 °F 45 °F 30.21 in North 5.8 mph   93% 0 in
11:49 46.9 °F 45 °F 30.21 in NNE 4 mph 1.4 mph 93% 0 in
11:54 46.9 °F 45 °F 30.21 in North 3.5 mph 1.4 mph 93% 0 in
11:59 47.1 °F 45.2 °F 30.21 in NNE 3.5 mph   93% 0 in
12:04 47.1 °F 45.2 °F 30.21 in Calm     93% 0 in
12:09 47.1 °F 45.2 °F 30.21 in NNW 5.8 mph 1.4 mph 93% 0 in
12:14 47.1 °F 45.2 °F 30.21 in NNE 2.4 mph 1.4 mph 93% 0 in
12:19 47.3 °F 45.4 °F 30.21 in Calm   1.4 mph 93% 0 in
12:24 47.5 °F 45.6 °F 30.21 in NNW 4.6 mph 1.4 mph 93% 0 in
12:29 47.3 °F 45.4 °F 30.21 in Calm   1.4 mph 93% 0 in
12:34 47.5 °F 45.6 °F 30.20 in Calm   1.4 mph 93% 0 in
12:39 47.7 °F 45.7 °F 30.20 in Calm     93% 0 in
12:44 47.8 °F 45.9 °F 30.20 in Calm     93% 0 in
12:49 48 °F 46.1 °F 30.19 in North 1.8 mph   93% 0 in
12:54 48 °F 46.1 °F 30.19 in Calm     93% 0 in
12:59 48.4 °F 46.4 °F 30.19 in NW 4.6 mph   93% 0 in
13:04 48.4 °F 46.4 °F 30.19 in Calm     93% 0 in
13:09 48.6 °F 46.6 °F 30.19 in Calm     93% 0 in
13:14 48.6 °F 46.6 °F 30.19 in NNW 4.6 mph   93% 0 in
13:19 48.7 °F 46.8 °F 30.18 in NW 4.6 mph 1.4 mph 93% 0 in
13:24 48.7 °F 46.5 °F 30.18 in NNE 2.3 mph 1.4 mph 92% 0 in
13:29 48.9 °F 46.7 °F 30.18 in North 5.8 mph 1.4 mph 92% 0 in
13:34 49.3 °F 47.3 °F 30.18 in Calm   1.4 mph 93% 0 in
13:39 49.5 °F 47.5 °F 30.18 in Calm     93% 0 in
13:44 49.6 °F 47.1 °F 30.18 in NW 2.3 mph   91% 0 in
13:49 49.6 °F 47.4 °F 30.17 in Calm     92% 0 in
13:54 49.8 °F 47.3 °F 30.17 in North 2.3 mph   91% 0 in
13:59 49.8 °F 47 °F 30.17 in North 3.5 mph   90% 0 in
14:04 50.2 °F 47.9 °F 30.16 in Calm     92% 0 in
14:09 50.4 °F 47.8 °F 30.16 in Calm     91% 0 in
14:14 50.7 °F 47.6 °F 30.16 in North 2.4 mph   89% 0 in
14:19 50.5 °F 47.4 °F 30.16 in NE 4.6 mph 1.4 mph 89% 0 in
14:24 50.5 °F 47.4 °F 30.16 in NNE 3.5 mph 1.4 mph 89% 0 in
14:29 50.7 °F 47.6 °F 30.16 in Calm   1.4 mph 89% 0 in
14:34 50.9 °F 47.8 °F 30.15 in Calm   1.4 mph 89% 0 in
14:39 51.1 °F 47.6 °F 30.15 in NNE 1.2 mph 1.4 mph 88% 0 in
14:44 51.1 °F 48 °F 30.15 in Calm   1.4 mph 89% 0 in
14:49 51.4 °F 48.3 °F 30.15 in Calm     89% 0 in
14:54 51.6 °F 48.2 °F 30.15 in Calm     88% 0 in
14:59 51.8 °F 48.1 °F 30.15 in Calm     87% 0 in
15:04 51.8 °F 48.1 °F 30.14 in Calm     87% 0 in
15:09 51.8 °F 48.1 °F 30.14 in North 3.6 mph 1.4 mph 87% 0 in
15:14 51.8 °F 48.4 °F 30.14 in Calm   1.4 mph 88% 0 in
15:19 52 °F 47.9 °F 30.13 in North 4.6 mph   86% 0 in
15:24 52 °F 48.2 °F 30.13 in SW 2 mph   87% 0 in
15:29 52.2 °F 48.1 °F 30.13 in North 2 mph 1.8 mph 86% 0 in
15:34 52.2 °F 48.1 °F 30.13 in Calm   1.8 mph 86% 0 in
15:39 52.2 °F 47.8 °F 30.13 in North 1.2 mph   85% 0 in
15:44 52.2 °F 47.8 °F 30.13 in Calm     85% 0 in
15:49 52.2 °F 47.5 °F 30.12 in NNE 4.6 mph   84% 0 in
15:54 52.2 °F 47.8 °F 30.12 in North 4.6 mph   85% 0 in
15:59 52.2 °F 47.5 °F 30.12 in NNE 2.3 mph 1.4 mph 84% 0 in
16:04 52.2 °F 47.5 °F 30.12 in NNW 3.5 mph 1.4 mph 84% 0 in
16:09 52.2 °F 47.5 °F 30.12 in Calm     84% 0 in
16:14 52.2 °F 47.5 °F 30.12 in North 4.6 mph   84% 0 in
16:19 52.3 °F 48 °F 30.11 in Calm     85% 0 in
16:24 52.5 °F 47.5 °F 30.11 in North 2.3 mph   83% 0 in
16:29 52.5 °F 47.5 °F 30.11 in Calm     83% 0 in
16:34 52.5 °F 47.8 °F 30.10 in Calm     84% 0 in
16:39 52.5 °F 47.8 °F 30.10 in Calm     84% 0 in
16:44 52.7 °F 48 °F 30.10 in Calm     84% 0 in
16:49 52.7 °F 47.7 °F 30.10 in Calm     83% 0 in
16:54 52.7 °F 47.7 °F 30.10 in Calm     83% 0 in
16:59 52.7 °F 47.7 °F 30.10 in NNW 1.8 mph   83% 0 in
17:04 52.7 °F 47.7 °F 30.10 in Calm     83% 0 in
17:09 52.7 °F 47.7 °F 30.10 in Calm     83% 0 in
17:14 52.5 °F 47.5 °F 30.10 in Calm     83% 0 in
17:19 52.5 °F 47.5 °F 30.09 in Calm     83% 0 in
17:24 52.5 °F 47.5 °F 30.09 in Calm     83% 0 in
17:29 52.3 °F 47.3 °F 30.09 in Calm     83% 0 in
17:34 52.3 °F 47.3 °F 30.09 in Calm     83% 0 in
17:39 52.2 °F 47.2 °F 30.09 in Calm     83% 0 in
17:44 52 °F 47 °F 30.09 in Calm     83% 0 in
17:49 51.6 °F 46.6 °F 30.09 in Calm     83% 0 in
17:54 51.3 °F 46.6 °F 30.09 in Calm     84% 0 in
17:59 51.1 °F 46.4 °F 30.09 in Calm     84% 0 in
18:04 50.5 °F 45.9 °F 30.09 in Calm     84% 0 in
18:09 50.2 °F 45.5 °F 30.09 in Calm     84% 0 in
18:14 49.8 °F 45.5 °F 30.09 in Calm     85% 0 in
18:19 49.5 °F 45.1 °F 30.09 in Calm     85% 0 in
18:24 48.9 °F 44.9 °F 30.09 in Calm     86% 0 in
18:29 48.6 °F 44.6 °F 30.09 in Calm     86% 0 in
18:34 48.2 °F 44.2 °F 30.09 in Calm     86% 0 in
18:39 47.8 °F 44.2 °F 30.09 in Calm     87% 0 in
18:44 47.5 °F 43.8 °F 30.09 in Calm     87% 0 in
18:49 47.1 °F 43.4 °F 30.08 in Calm     87% 0 in
18:54 46.8 °F 43.1 °F 30.08 in Calm     87% 0 in
18:59 46.4 °F 42.7 °F 30.08 in Calm     87% 0 in
19:04 46 °F 42.7 °F 30.08 in Calm     88% 0 in
19:09 45.9 °F 42.5 °F 30.08 in Calm     88% 0 in
19:14 45.3 °F 42 °F 30.08 in Calm     88% 0 in
19:19 45.1 °F 42.1 °F 30.08 in Calm     89% 0 in
19:24 45 °F 41.9 °F 30.08 in Calm     89% 0 in
19:29 44.6 °F 41.6 °F 30.08 in Calm     89% 0 in
19:34 44.2 °F 41.2 °F 30.08 in Calm     89% 0 in
19:39 44.1 °F 41 °F 30.08 in Calm     89% 0 in
19:44 43.7 °F 40.7 °F 30.08 in Calm     89% 0 in
19:49 43.5 °F 40.5 °F 30.08 in Calm     89% 0 in
19:54 43.3 °F 40.6 °F 30.08 in Calm     90% 0 in
19:59 43.2 °F 40.4 °F 30.08 in Calm     90% 0 in
20:04 42.8 °F 40.1 °F 30.07 in Calm     90% 0 in
20:09 42.6 °F 39.9 °F 30.07 in Calm     90% 0 in
20:14 42.4 °F 39.7 °F 30.07 in Calm     90% 0 in
20:19 42.3 °F 39.5 °F 30.07 in Calm     90% 0 in
20:24 42.1 °F 39.6 °F 30.07 in Calm     91% 0 in
20:29 41.9 °F 39.5 °F 30.07 in Calm     91% 0 in
20:34 41.7 °F 39.3 °F 30.06 in Calm     91% 0 in
20:39 41.5 °F 39.1 °F 30.06 in Calm     91% 0 in
20:44 41.4 °F 38.9 °F 30.06 in Calm     91% 0 in
20:49 41.4 °F 38.9 °F 30.06 in Calm     91% 0 in
20:54 41.2 °F 38.8 °F 30.06 in Calm     91% 0 in
20:59 41 °F 38.6 °F 30.06 in Calm     91% 0 in
21:04 40.8 °F 38.4 °F 30.06 in Calm     91% 0 in
21:09 40.6 °F 38.2 °F 30.06 in Calm     91% 0 in
21:14 40.5 °F 38 °F 30.06 in Calm     91% 0 in
21:19 40.5 °F 38.3 °F 30.06 in Calm     92% 0 in
21:24 40.3 °F 38.1 °F 30.06 in Calm     92% 0 in
21:29 40.3 °F 38.1 °F 30.06 in Calm     92% 0 in
21:34 40.1 °F 38 °F 30.06 in Calm     92% 0 in
21:39 39.9 °F 37.8 °F 30.06 in Calm     92% 0 in
21:44 39.7 °F 37.6 °F 30.06 in Calm     92% 0 in
21:49 39.7 °F 37.3 °F 30.06 in Calm     91% 0 in
21:54 39.6 °F 37.4 °F 30.06 in Calm     92% 0 in
21:59 39.4 °F 37.2 °F 30.06 in Calm     92% 0 in
22:04 39.4 °F 37.2 °F 30.06 in Calm     92% 0 in
22:09 39.4 °F 37.2 °F 30.06 in Calm     92% 0 in
22:14 39.2 °F 37.1 °F 30.06 in Calm     92% 0 in
22:19 39 °F 36.9 °F 30.06 in Calm     92% 0 in
22:24 39 °F 36.9 °F 30.06 in Calm     92% 0 in
22:29 38.8 °F 36.7 °F 30.06 in Calm     92% 0 in
22:34 38.8 °F 36.7 °F 30.06 in Calm     92% 0 in
22:39 38.7 °F 36.8 °F 30.06 in Calm     93% 0 in
22:44 38.7 °F 36.8 °F 30.06 in Calm     93% 0 in
22:49 38.7 °F 36.8 °F 30.06 in Calm     93% 0 in
22:54 38.7 °F 36.5 °F 30.06 in Calm     92% 0 in
Amateur Radio Station WA6MVG